sensor_id;sensor_type;location;lat;lon;timestamp;temperature;humidity
32769;DHT22;23049;54.304;8.826;2023-11-21T00:00:25;8.90;99.90
32769;DHT22;23049;54.304;8.826;2023-11-21T00:02:51;8.90;99.90
32769;DHT22;23049;54.304;8.826;2023-11-21T00:05:16;9.00;99.90
32769;DHT22;23049;54.304;8.826;2023-11-21T00:07:42;8.90;99.90
32769;DHT22;23049;54.304;8.826;2023-11-21T00:10:08;8.90;99.90
32769;DHT22;23049;54.304;8.826;2023-11-21T00:12:35;8.90;99.90
32769;DHT22;23049;54.304;8.826;2023-11-21T00:15:00;8.90;99.90
32769;DHT22;23049;54.304;8.826;2023-11-21T00:17:27;8.90;99.90
32769;DHT22;23049;54.304;8.826;2023-11-21T00:19:52;8.80;99.90
32769;DHT22;23049;54.304;8.826;2023-11-21T00:22:18;8.80;99.90
32769;DHT22;23049;54.304;8.826;2023-11-21T00:24:44;8.80;99.90
32769;DHT22;23049;54.304;8.826;2023-11-21T00:27:09;8.80;99.90
32769;DHT22;23049;54.304;8.826;2023-11-21T00:29:35;8.80;99.90
32769;DHT22;23049;54.304;8.826;2023-11-21T00:32:01;8.80;99.90
32769;DHT22;23049;54.304;8.826;2023-11-21T00:34:26;8.80;99.90
32769;DHT22;23049;54.304;8.826;2023-11-21T00:36:52;8.70;99.90
32769;DHT22;23049;54.304;8.826;2023-11-21T00:39:17;8.80;99.90
32769;DHT22;23049;54.304;8.826;2023-11-21T00:41:43;8.80;99.90
32769;DHT22;23049;54.304;8.826;2023-11-21T00:44:10;8.70;99.90
32769;DHT22;23049;54.304;8.826;2023-11-21T00:46:36;8.70;99.90
32769;DHT22;23049;54.304;8.826;2023-11-21T00:49:02;8.70;99.90
32769;DHT22;23049;54.304;8.826;2023-11-21T00:51:29;8.70;99.90
32769;DHT22;23049;54.304;8.826;2023-11-21T00:53:55;8.70;99.90
32769;DHT22;23049;54.304;8.826;2023-11-21T00:56:20;8.70;99.90
32769;DHT22;23049;54.304;8.826;2023-11-21T00:58:46;8.60;99.90
32769;DHT22;23049;54.304;8.826;2023-11-21T01:01:15;8.70;99.90
32769;DHT22;23049;54.304;8.826;2023-11-21T01:03:41;8.70;99.90
32769;DHT22;23049;54.304;8.826;2023-11-21T01:06:06;8.60;99.90
32769;DHT22;23049;54.304;8.826;2023-11-21T01:08:32;8.60;99.90
32769;DHT22;23049;54.304;8.826;2023-11-21T01:10:58;8.60;99.90
32769;DHT22;23049;54.304;8.826;2023-11-21T01:13:23;8.60;99.90
32769;DHT22;23049;54.304;8.826;2023-11-21T01:15:49;8.60;99.90
32769;DHT22;23049;54.304;8.826;2023-11-21T01:18:14;8.50;99.90
32769;DHT22;23049;54.304;8.826;2023-11-21T01:20:40;8.50;99.90
32769;DHT22;23049;54.304;8.826;2023-11-21T01:23:05;8.50;99.90
32769;DHT22;23049;54.304;8.826;2023-11-21T01:25:31;8.50;99.90
32769;DHT22;23049;54.304;8.826;2023-11-21T01:27:56;8.50;99.90
32769;DHT22;23049;54.304;8.826;2023-11-21T01:30:22;8.50;99.90
32769;DHT22;23049;54.304;8.826;2023-11-21T01:32:47;8.50;99.90
32769;DHT22;23049;54.304;8.826;2023-11-21T01:35:13;8.50;99.90
32769;DHT22;23049;54.304;8.826;2023-11-21T01:37:38;8.50;99.90
32769;DHT22;23049;54.304;8.826;2023-11-21T01:40:04;8.40;99.90
32769;DHT22;23049;54.304;8.826;2023-11-21T01:42:34;8.40;99.90
32769;DHT22;23049;54.304;8.826;2023-11-21T01:45:00;8.40;99.90
32769;DHT22;23049;54.304;8.826;2023-11-21T01:47:27;8.40;99.90
32769;DHT22;23049;54.304;8.826;2023-11-21T01:49:52;8.40;99.90
32769;DHT22;23049;54.304;8.826;2023-11-21T01:52:18;8.40;99.90
32769;DHT22;23049;54.304;8.826;2023-11-21T01:54:45;8.40;99.90
32769;DHT22;23049;54.304;8.826;2023-11-21T01:57:10;8.40;99.90
32769;DHT22;23049;54.304;8.826;2023-11-21T01:59:36;8.40;99.90
32769;DHT22;23049;54.304;8.826;2023-11-21T02:02:06;8.40;99.90
32769;DHT22;23049;54.304;8.826;2023-11-21T02:04:32;8.40;99.90
32769;DHT22;23049;54.304;8.826;2023-11-21T02:06:58;8.40;99.90
32769;DHT22;23049;54.304;8.826;2023-11-21T02:09:24;8.40;99.90
32769;DHT22;23049;54.304;8.826;2023-11-21T02:11:51;8.40;99.90
32769;DHT22;23049;54.304;8.826;2023-11-21T02:14:16;8.40;99.90
32769;DHT22;23049;54.304;8.826;2023-11-21T02:16:45;8.40;99.90
32769;DHT22;23049;54.304;8.826;2023-11-21T02:19:13;8.40;99.90
32769;DHT22;23049;54.304;8.826;2023-11-21T02:21:42;8.40;99.90
32769;DHT22;23049;54.304;8.826;2023-11-21T02:24:10;8.40;99.90
32769;DHT22;23049;54.304;8.826;2023-11-21T02:26:35;8.30;99.90
32769;DHT22;23049;54.304;8.826;2023-11-21T02:29:01;8.30;99.90
32769;DHT22;23049;54.304;8.826;2023-11-21T02:31:29;8.30;99.90
32769;DHT22;23049;54.304;8.826;2023-11-21T02:33:55;8.30;99.90
32769;DHT22;23049;54.304;8.826;2023-11-21T02:36:21;8.30;99.90
32769;DHT22;23049;54.304;8.826;2023-11-21T02:38:47;8.30;99.90
32769;DHT22;23049;54.304;8.826;2023-11-21T02:41:12;8.30;99.90
32769;DHT22;23049;54.304;8.826;2023-11-21T02:43:38;8.30;99.90
32769;DHT22;23049;54.304;8.826;2023-11-21T02:46:04;8.30;99.90
32769;DHT22;23049;54.304;8.826;2023-11-21T02:48:29;8.30;99.90
32769;DHT22;23049;54.304;8.826;2023-11-21T02:50:56;8.30;99.90
32769;DHT22;23049;54.304;8.826;2023-11-21T02:53:21;8.30;99.90
32769;DHT22;23049;54.304;8.826;2023-11-21T02:55:47;8.30;99.90
32769;DHT22;23049;54.304;8.826;2023-11-21T02:58:12;8.30;99.90
32769;DHT22;23049;54.304;8.826;2023-11-21T03:00:38;8.30;99.90
32769;DHT22;23049;54.304;8.826;2023-11-21T03:03:05;8.20;99.90
32769;DHT22;23049;54.304;8.826;2023-11-21T03:05:31;8.30;99.90
32769;DHT22;23049;54.304;8.826;2023-11-21T03:07:56;8.30;99.90
32769;DHT22;23049;54.304;8.826;2023-11-21T03:10:22;8.30;99.90
32769;DHT22;23049;54.304;8.826;2023-11-21T03:12:48;8.30;99.90
32769;DHT22;23049;54.304;8.826;2023-11-21T03:15:14;8.20;99.90
32769;DHT22;23049;54.304;8.826;2023-11-21T03:17:40;8.20;99.90
32769;DHT22;23049;54.304;8.826;2023-11-21T03:20:05;8.20;99.90
32769;DHT22;23049;54.304;8.826;2023-11-21T03:22:34;8.20;99.90
32769;DHT22;23049;54.304;8.826;2023-11-21T03:25:00;8.20;99.90
32769;DHT22;23049;54.304;8.826;2023-11-21T03:27:26;8.20;99.90
32769;DHT22;23049;54.304;8.826;2023-11-21T03:29:51;8.20;99.90
32769;DHT22;23049;54.304;8.826;2023-11-21T03:32:17;8.20;99.90
32769;DHT22;23049;54.304;8.826;2023-11-21T03:34:56;8.20;99.90
32769;DHT22;23049;54.304;8.826;2023-11-21T03:37:22;8.20;99.90
32769;DHT22;23049;54.304;8.826;2023-11-21T03:39:48;8.20;99.90
32769;DHT22;23049;54.304;8.826;2023-11-21T03:42:14;8.20;99.90
32769;DHT22;23049;54.304;8.826;2023-11-21T03:44:39;8.20;99.90
32769;DHT22;23049;54.304;8.826;2023-11-21T03:47:05;8.20;99.90
32769;DHT22;23049;54.304;8.826;2023-11-21T03:49:30;8.20;99.90
32769;DHT22;23049;54.304;8.826;2023-11-21T03:51:56;8.20;99.90
32769;DHT22;23049;54.304;8.826;2023-11-21T03:54:21;8.20;99.90
32769;DHT22;23049;54.304;8.826;2023-11-21T03:56:47;8.20;99.90
32769;DHT22;23049;54.304;8.826;2023-11-21T03:59:12;8.20;99.90
32769;DHT22;23049;54.304;8.826;2023-11-21T04:01:38;8.20;99.90
32769;DHT22;23049;54.304;8.826;2023-11-21T04:04:03;8.20;99.90
32769;DHT22;23049;54.304;8.826;2023-11-21T04:06:29;8.20;99.90
32769;DHT22;23049;54.304;8.826;2023-11-21T04:08:55;8.20;99.90
32769;DHT22;23049;54.304;8.826;2023-11-21T04:11:20;8.20;99.90
32769;DHT22;23049;54.304;8.826;2023-11-21T04:13:46;8.20;99.90
32769;DHT22;23049;54.304;8.826;2023-11-21T04:16:12;8.20;99.90
32769;DHT22;23049;54.304;8.826;2023-11-21T04:18:38;8.20;99.90
32769;DHT22;23049;54.304;8.826;2023-11-21T04:21:04;8.20;99.90
32769;DHT22;23049;54.304;8.826;2023-11-21T04:23:30;8.20;99.90
32769;DHT22;23049;54.304;8.826;2023-11-21T04:25:58;8.10;99.90
32769;DHT22;23049;54.304;8.826;2023-11-21T04:28:24;8.20;99.90
32769;DHT22;23049;54.304;8.826;2023-11-21T04:30:50;8.20;99.90
32769;DHT22;23049;54.304;8.826;2023-11-21T04:33:15;8.20;99.90
32769;DHT22;23049;54.304;8.826;2023-11-21T04:35:41;8.20;99.90
32769;DHT22;23049;54.304;8.826;2023-11-21T04:38:07;8.20;99.90
32769;DHT22;23049;54.304;8.826;2023-11-21T04:40:32;8.20;99.90
32769;DHT22;23049;54.304;8.826;2023-11-21T04:42:58;8.20;99.90
32769;DHT22;23049;54.304;8.826;2023-11-21T04:45:23;8.10;99.90
32769;DHT22;23049;54.304;8.826;2023-11-21T04:47:49;8.10;99.90
32769;DHT22;23049;54.304;8.826;2023-11-21T04:50:14;8.10;99.90
32769;DHT22;23049;54.304;8.826;2023-11-21T04:52:40;8.10;99.90
32769;DHT22;23049;54.304;8.826;2023-11-21T04:55:05;8.10;99.90
32769;DHT22;23049;54.304;8.826;2023-11-21T04:57:35;8.10;99.90
32769;DHT22;23049;54.304;8.826;2023-11-21T05:00:01;8.10;99.90
32769;DHT22;23049;54.304;8.826;2023-11-21T05:02:26;8.10;99.90
32769;DHT22;23049;54.304;8.826;2023-11-21T05:04:52;8.10;99.90
32769;DHT22;23049;54.304;8.826;2023-11-21T05:07:18;8.10;99.90
32769;DHT22;23049;54.304;8.826;2023-11-21T05:09:44;8.10;99.90
32769;DHT22;23049;54.304;8.826;2023-11-21T05:12:11;8.10;99.90
32769;DHT22;23049;54.304;8.826;2023-11-21T05:14:37;8.10;99.90
32769;DHT22;23049;54.304;8.826;2023-11-21T05:17:03;8.10;99.90
32769;DHT22;23049;54.304;8.826;2023-11-21T05:19:29;8.10;99.90
32769;DHT22;23049;54.304;8.826;2023-11-21T05:21:55;8.10;99.90
32769;DHT22;23049;54.304;8.826;2023-11-21T05:24:20;8.10;99.90
32769;DHT22;23049;54.304;8.826;2023-11-21T05:26:46;8.10;99.90
32769;DHT22;23049;54.304;8.826;2023-11-21T05:29:11;8.00;99.90
32769;DHT22;23049;54.304;8.826;2023-11-21T05:31:37;8.00;99.90
32769;DHT22;23049;54.304;8.826;2023-11-21T05:34:03;8.00;99.90
32769;DHT22;23049;54.304;8.826;2023-11-21T05:36:30;8.00;99.90
32769;DHT22;23049;54.304;8.826;2023-11-21T05:38:56;8.00;99.90
32769;DHT22;23049;54.304;8.826;2023-11-21T05:41:21;8.00;99.90
32769;DHT22;23049;54.304;8.826;2023-11-21T05:43:47;8.00;99.90
32769;DHT22;23049;54.304;8.826;2023-11-21T05:46:12;8.00;99.90
32769;DHT22;23049;54.304;8.826;2023-11-21T05:48:38;7.90;99.90
32769;DHT22;23049;54.304;8.826;2023-11-21T05:51:07;7.90;99.90
32769;DHT22;23049;54.304;8.826;2023-11-21T05:53:33;7.90;99.90
32769;DHT22;23049;54.304;8.826;2023-11-21T05:55:59;7.90;99.90
32769;DHT22;23049;54.304;8.826;2023-11-21T05:58:25;7.90;99.90
32769;DHT22;23049;54.304;8.826;2023-11-21T06:00:50;7.90;99.90
32769;DHT22;23049;54.304;8.826;2023-11-21T06:03:16;7.90;99.90
32769;DHT22;23049;54.304;8.826;2023-11-21T06:05:42;7.90;99.90
32769;DHT22;23049;54.304;8.826;2023-11-21T06:08:09;7.90;99.90
32769;DHT22;23049;54.304;8.826;2023-11-21T06:10:35;7.90;99.90
32769;DHT22;23049;54.304;8.826;2023-11-21T06:13:01;7.90;99.90
32769;DHT22;23049;54.304;8.826;2023-11-21T06:15:26;7.80;99.90
32769;DHT22;23049;54.304;8.826;2023-11-21T06:17:53;7.80;99.90
32769;DHT22;23049;54.304;8.826;2023-11-21T06:20:18;7.80;99.90
32769;DHT22;23049;54.304;8.826;2023-11-21T06:22:45;7.80;99.90
32769;DHT22;23049;54.304;8.826;2023-11-21T06:25:11;7.70;99.90
32769;DHT22;23049;54.304;8.826;2023-11-21T06:27:39;7.80;99.90
32769;DHT22;23049;54.304;8.826;2023-11-21T06:30:04;7.70;99.90
32769;DHT22;23049;54.304;8.826;2023-11-21T06:32:32;7.70;99.90
32769;DHT22;23049;54.304;8.826;2023-11-21T06:34:57;7.70;99.90
32769;DHT22;23049;54.304;8.826;2023-11-21T06:37:28;7.70;99.90
32769;DHT22;23049;54.304;8.826;2023-11-21T06:39:54;7.70;99.90
32769;DHT22;23049;54.304;8.826;2023-11-21T06:42:20;7.70;99.90
32769;DHT22;23049;54.304;8.826;2023-11-21T06:44:46;7.70;99.90
32769;DHT22;23049;54.304;8.826;2023-11-21T06:47:11;7.60;99.90
32769;DHT22;23049;54.304;8.826;2023-11-21T06:49:37;7.70;99.90
32769;DHT22;23049;54.304;8.826;2023-11-21T06:52:04;7.60;99.90
32769;DHT22;23049;54.304;8.826;2023-11-21T06:54:30;7.60;99.90
32769;DHT22;23049;54.304;8.826;2023-11-21T06:56:56;7.70;99.90
32769;DHT22;23049;54.304;8.826;2023-11-21T06:59:22;7.60;99.90
32769;DHT22;23049;54.304;8.826;2023-11-21T07:01:47;7.60;99.90
32769;DHT22;23049;54.304;8.826;2023-11-21T07:04:13;7.60;99.90
32769;DHT22;23049;54.304;8.826;2023-11-21T07:06:38;7.60;99.90
32769;DHT22;23049;54.304;8.826;2023-11-21T07:09:04;7.60;99.90
32769;DHT22;23049;54.304;8.826;2023-11-21T07:11:29;7.60;99.90
32769;DHT22;23049;54.304;8.826;2023-11-21T07:13:55;7.60;99.90
32769;DHT22;23049;54.304;8.826;2023-11-21T07:16:20;7.50;99.90
32769;DHT22;23049;54.304;8.826;2023-11-21T07:18:46;7.50;99.90
32769;DHT22;23049;54.304;8.826;2023-11-21T07:21:11;7.50;99.90
32769;DHT22;23049;54.304;8.826;2023-11-21T07:23:41;7.50;99.90
32769;DHT22;23049;54.304;8.826;2023-11-21T07:26:07;7.50;99.90
32769;DHT22;23049;54.304;8.826;2023-11-21T07:28:34;7.50;99.90
32769;DHT22;23049;54.304;8.826;2023-11-21T07:31:01;7.50;99.90
32769;DHT22;23049;54.304;8.826;2023-11-21T07:33:26;7.50;99.90
32769;DHT22;23049;54.304;8.826;2023-11-21T07:35:52;7.50;99.90
32769;DHT22;23049;54.304;8.826;2023-11-21T07:38:17;7.50;99.90
32769;DHT22;23049;54.304;8.826;2023-11-21T07:40:43;7.50;99.90
32769;DHT22;23049;54.304;8.826;2023-11-21T07:43:09;7.50;99.90
32769;DHT22;23049;54.304;8.826;2023-11-21T07:45:35;7.50;99.90
32769;DHT22;23049;54.304;8.826;2023-11-21T07:48:01;7.50;99.90
32769;DHT22;23049;54.304;8.826;2023-11-21T07:50:28;7.50;99.90
32769;DHT22;23049;54.304;8.826;2023-11-21T07:52:54;7.50;99.90
32769;DHT22;23049;54.304;8.826;2023-11-21T07:55:20;7.50;99.90
32769;DHT22;23049;54.304;8.826;2023-11-21T07:57:45;7.50;99.90
32769;DHT22;23049;54.304;8.826;2023-11-21T08:00:11;7.50;99.90
32769;DHT22;23049;54.304;8.826;2023-11-21T08:02:38;7.50;99.90
32769;DHT22;23049;54.304;8.826;2023-11-21T08:05:04;7.50;99.90
32769;DHT22;23049;54.304;8.826;2023-11-21T08:07:30;7.50;99.90
32769;DHT22;23049;54.304;8.826;2023-11-21T08:09:56;7.60;99.90
32769;DHT22;23049;54.304;8.826;2023-11-21T08:12:22;7.50;99.90
32769;DHT22;23049;54.304;8.826;2023-11-21T08:14:47;7.50;99.90
32769;DHT22;23049;54.304;8.826;2023-11-21T08:17:13;7.50;99.90
32769;DHT22;23049;54.304;8.826;2023-11-21T08:19:39;7.50;99.90
32769;DHT22;23049;54.304;8.826;2023-11-21T08:22:04;7.60;99.90
32769;DHT22;23049;54.304;8.826;2023-11-21T08:24:32;7.60;99.90
32769;DHT22;23049;54.304;8.826;2023-11-21T08:26:58;7.60;99.90
32769;DHT22;23049;54.304;8.826;2023-11-21T08:29:24;7.50;99.90
32769;DHT22;23049;54.304;8.826;2023-11-21T08:31:49;7.60;99.90
32769;DHT22;23049;54.304;8.826;2023-11-21T08:34:15;7.60;99.90
32769;DHT22;23049;54.304;8.826;2023-11-21T08:36:43;7.50;99.90
32769;DHT22;23049;54.304;8.826;2023-11-21T08:39:09;7.50;99.90
32769;DHT22;23049;54.304;8.826;2023-11-21T08:41:35;7.50;99.90
32769;DHT22;23049;54.304;8.826;2023-11-21T08:44:02;7.50;99.90
32769;DHT22;23049;54.304;8.826;2023-11-21T08:46:32;7.50;99.90
32769;DHT22;23049;54.304;8.826;2023-11-21T08:49:00;7.50;99.90
32769;DHT22;23049;54.304;8.826;2023-11-21T08:51:25;7.40;99.90
32769;DHT22;23049;54.304;8.826;2023-11-21T08:53:51;7.40;99.90
32769;DHT22;23049;54.304;8.826;2023-11-21T08:56:17;7.40;99.90
32769;DHT22;23049;54.304;8.826;2023-11-21T08:58:43;7.40;99.90
32769;DHT22;23049;54.304;8.826;2023-11-21T09:01:09;7.40;99.90
32769;DHT22;23049;54.304;8.826;2023-11-21T09:03:35;7.50;99.90
32769;DHT22;23049;54.304;8.826;2023-11-21T09:06:00;7.50;99.90
32769;DHT22;23049;54.304;8.826;2023-11-21T09:08:26;7.50;99.90
32769;DHT22;23049;54.304;8.826;2023-11-21T09:10:53;7.50;99.90
32769;DHT22;23049;54.304;8.826;2023-11-21T09:13:19;7.60;99.90
32769;DHT22;23049;54.304;8.826;2023-11-21T09:15:44;7.60;99.90
32769;DHT22;23049;54.304;8.826;2023-11-21T09:18:14;7.60;99.90
32769;DHT22;23049;54.304;8.826;2023-11-21T09:20:41;7.50;99.90
32769;DHT22;23049;54.304;8.826;2023-11-21T09:23:06;7.60;99.90
32769;DHT22;23049;54.304;8.826;2023-11-21T09:25:32;7.60;99.90
32769;DHT22;23049;54.304;8.826;2023-11-21T09:27:58;7.60;99.90
32769;DHT22;23049;54.304;8.826;2023-11-21T09:30:23;7.60;99.90
32769;DHT22;23049;54.304;8.826;2023-11-21T09:32:50;7.70;99.90
32769;DHT22;23049;54.304;8.826;2023-11-21T09:35:15;7.70;99.90
32769;DHT22;23049;54.304;8.826;2023-11-21T09:37:45;7.70;99.90
32769;DHT22;23049;54.304;8.826;2023-11-21T09:40:11;7.70;99.90
32769;DHT22;23049;54.304;8.826;2023-11-21T09:42:43;7.70;99.90
32769;DHT22;23049;54.304;8.826;2023-11-21T09:45:21;7.60;99.90
32769;DHT22;23049;54.304;8.826;2023-11-21T09:47:49;7.60;99.90
32769;DHT22;23049;54.304;8.826;2023-11-21T09:50:16;7.70;99.90
32769;DHT22;23049;54.304;8.826;2023-11-21T09:55:18;7.60;99.90
32769;DHT22;23049;54.304;8.826;2023-11-21T09:57:47;7.70;99.90
32769;DHT22;23049;54.304;8.826;2023-11-21T10:00:14;7.70;99.90
32769;DHT22;23049;54.304;8.826;2023-11-21T10:02:42;7.70;99.90
32769;DHT22;23049;54.304;8.826;2023-11-21T10:05:08;7.70;99.90
32769;DHT22;23049;54.304;8.826;2023-11-21T10:07:36;7.70;99.90
32769;DHT22;23049;54.304;8.826;2023-11-21T10:10:02;7.80;99.90
32769;DHT22;23049;54.304;8.826;2023-11-21T10:12:28;7.70;99.90
32769;DHT22;23049;54.304;8.826;2023-11-21T10:14:55;7.80;99.90
32769;DHT22;23049;54.304;8.826;2023-11-21T10:17:23;7.70;99.90
32769;DHT22;23049;54.304;8.826;2023-11-21T10:19:51;7.70;99.90
32769;DHT22;23049;54.304;8.826;2023-11-21T10:22:19;7.70;99.90
32769;DHT22;23049;54.304;8.826;2023-11-21T10:24:45;7.80;99.90
32769;DHT22;23049;54.304;8.826;2023-11-21T10:27:10;7.70;99.90
32769;DHT22;23049;54.304;8.826;2023-11-21T10:29:36;7.80;99.90
32769;DHT22;23049;54.304;8.826;2023-11-21T10:32:02;7.80;99.90
32769;DHT22;23049;54.304;8.826;2023-11-21T10:34:27;7.80;99.90
32769;DHT22;23049;54.304;8.826;2023-11-21T10:36:53;7.70;99.90
32769;DHT22;23049;54.304;8.826;2023-11-21T10:39:19;7.70;99.90
32769;DHT22;23049;54.304;8.826;2023-11-21T10:41:45;7.80;99.90
32769;DHT22;23049;54.304;8.826;2023-11-21T10:44:13;7.70;99.90
32769;DHT22;23049;54.304;8.826;2023-11-21T10:46:40;7.70;99.90
32769;DHT22;23049;54.304;8.826;2023-11-21T10:49:08;7.60;99.90
32769;DHT22;23049;54.304;8.826;2023-11-21T10:51:34;7.60;99.90
32769;DHT22;23049;54.304;8.826;2023-11-21T10:54:00;7.60;99.90
32769;DHT22;23049;54.304;8.826;2023-11-21T10:56:25;7.60;99.90
32769;DHT22;23049;54.304;8.826;2023-11-21T10:58:52;7.70;99.90
32769;DHT22;23049;54.304;8.826;2023-11-21T11:01:18;7.60;99.90
32769;DHT22;23049;54.304;8.826;2023-11-21T11:03:44;7.60;99.90
32769;DHT22;23049;54.304;8.826;2023-11-21T11:06:10;7.70;99.90
32769;DHT22;23049;54.304;8.826;2023-11-21T11:08:38;7.60;99.90
32769;DHT22;23049;54.304;8.826;2023-11-21T11:11:05;7.60;99.90
32769;DHT22;23049;54.304;8.826;2023-11-21T11:13:30;7.60;99.90
32769;DHT22;23049;54.304;8.826;2023-11-21T11:15:58;7.60;99.90
32769;DHT22;23049;54.304;8.826;2023-11-21T11:18:24;7.60;99.90
32769;DHT22;23049;54.304;8.826;2023-11-21T11:20:50;7.60;99.90
32769;DHT22;23049;54.304;8.826;2023-11-21T11:23:28;7.70;99.90
32769;DHT22;23049;54.304;8.826;2023-11-21T11:26:17;7.60;99.90
32769;DHT22;23049;54.304;8.826;2023-11-21T11:29:10;7.70;99.90
32769;DHT22;23049;54.304;8.826;2023-11-21T11:31:45;7.80;99.90
32769;DHT22;23049;54.304;8.826;2023-11-21T11:36:52;7.80;99.90
32769;DHT22;23049;54.304;8.826;2023-11-21T11:41:53;8.10;99.90
32769;DHT22;23049;54.304;8.826;2023-11-21T11:47:11;8.30;99.90
32769;DHT22;23049;54.304;8.826;2023-11-21T11:49:38;8.30;99.90
32769;DHT22;23049;54.304;8.826;2023-11-21T11:54:57;8.20;99.90
32769;DHT22;23049;54.304;8.826;2023-11-21T11:57:24;8.10;99.90
32769;DHT22;23049;54.304;8.826;2023-11-21T12:02:41;7.80;99.90
32769;DHT22;23049;54.304;8.826;2023-11-21T12:05:08;7.80;99.90
32769;DHT22;23049;54.304;8.826;2023-11-21T12:07:44;7.70;99.90
32769;DHT22;23049;54.304;8.826;2023-11-21T12:10:14;7.80;99.90
32769;DHT22;23049;54.304;8.826;2023-11-21T12:12:44;7.70;99.90
32769;DHT22;23049;54.304;8.826;2023-11-21T12:15:10;7.70;99.90
32769;DHT22;23049;54.304;8.826;2023-11-21T12:17:37;7.70;99.90
32769;DHT22;23049;54.304;8.826;2023-11-21T12:20:04;7.80;99.90
32769;DHT22;23049;54.304;8.826;2023-11-21T12:22:31;7.80;99.90
32769;DHT22;23049;54.304;8.826;2023-11-21T12:24:56;8.00;99.90
32769;DHT22;23049;54.304;8.826;2023-11-21T12:27:22;8.10;99.90
32769;DHT22;23049;54.304;8.826;2023-11-21T12:29:47;8.10;99.90
32769;DHT22;23049;54.304;8.826;2023-11-21T12:32:13;8.00;99.90
32769;DHT22;23049;54.304;8.826;2023-11-21T12:34:40;7.90;99.90
32769;DHT22;23049;54.304;8.826;2023-11-21T12:37:06;8.00;99.90
32769;DHT22;23049;54.304;8.826;2023-11-21T12:39:31;8.00;99.90
32769;DHT22;23049;54.304;8.826;2023-11-21T12:41:57;8.00;99.90
32769;DHT22;23049;54.304;8.826;2023-11-21T12:44:23;8.00;99.90
32769;DHT22;23049;54.304;8.826;2023-11-21T12:46:51;7.90;99.90
32769;DHT22;23049;54.304;8.826;2023-11-21T12:49:17;7.80;99.90
32769;DHT22;23049;54.304;8.826;2023-11-21T12:51:46;7.80;99.90
32769;DHT22;23049;54.304;8.826;2023-11-21T12:54:12;7.80;99.90
32769;DHT22;23049;54.304;8.826;2023-11-21T12:56:38;7.80;99.90
32769;DHT22;23049;54.304;8.826;2023-11-21T12:59:04;7.80;99.90
32769;DHT22;23049;54.304;8.826;2023-11-21T13:01:30;7.80;99.90
32769;DHT22;23049;54.304;8.826;2023-11-21T13:03:59;7.80;99.90
32769;DHT22;23049;54.304;8.826;2023-11-21T13:06:25;7.80;99.90
32769;DHT22;23049;54.304;8.826;2023-11-21T13:08:51;7.70;99.90
32769;DHT22;23049;54.304;8.826;2023-11-21T13:11:17;7.70;99.90
32769;DHT22;23049;54.304;8.826;2023-11-21T13:13:43;7.70;99.90
32769;DHT22;23049;54.304;8.826;2023-11-21T13:16:11;7.70;99.90
32769;DHT22;23049;54.304;8.826;2023-11-21T13:18:37;7.70;99.90
32769;DHT22;23049;54.304;8.826;2023-11-21T13:21:05;7.60;99.90
32769;DHT22;23049;54.304;8.826;2023-11-21T13:23:41;7.70;99.90
32769;DHT22;23049;54.304;8.826;2023-11-21T13:26:07;7.60;99.90
32769;DHT22;23049;54.304;8.826;2023-11-21T13:28:34;7.60;99.90
32769;DHT22;23049;54.304;8.826;2023-11-21T13:31:00;7.60;99.90
32769;DHT22;23049;54.304;8.826;2023-11-21T13:33:34;7.60;99.90
32769;DHT22;23049;54.304;8.826;2023-11-21T13:36:03;7.60;99.90
32769;DHT22;23049;54.304;8.826;2023-11-21T13:38:32;7.60;99.90
32769;DHT22;23049;54.304;8.826;2023-11-21T13:40:59;7.60;99.90
32769;DHT22;23049;54.304;8.826;2023-11-21T13:43:25;7.50;99.90
32769;DHT22;23049;54.304;8.826;2023-11-21T13:45:51;7.60;99.90
32769;DHT22;23049;54.304;8.826;2023-11-21T13:48:25;7.60;99.90
32769;DHT22;23049;54.304;8.826;2023-11-21T13:50:56;7.50;99.90
32769;DHT22;23049;54.304;8.826;2023-11-21T13:53:33;7.50;99.90
32769;DHT22;23049;54.304;8.826;2023-11-21T13:56:01;7.50;99.90
32769;DHT22;23049;54.304;8.826;2023-11-21T13:58:27;7.40;99.90
32769;DHT22;23049;54.304;8.826;2023-11-21T14:01:12;7.40;99.90
32769;DHT22;23049;54.304;8.826;2023-11-21T14:03:58;7.30;99.90
32769;DHT22;23049;54.304;8.826;2023-11-21T14:06:42;7.30;99.90
32769;DHT22;23049;54.304;8.826;2023-11-21T14:09:18;7.30;99.90
32769;DHT22;23049;54.304;8.826;2023-11-21T14:11:51;7.20;99.90
32769;DHT22;23049;54.304;8.826;2023-11-21T14:14:18;7.20;99.90
32769;DHT22;23049;54.304;8.826;2023-11-21T14:16:44;7.20;99.90
32769;DHT22;23049;54.304;8.826;2023-11-21T14:19:10;7.20;99.90
32769;DHT22;23049;54.304;8.826;2023-11-21T14:21:44;7.30;99.90
32769;DHT22;23049;54.304;8.826;2023-11-21T14:24:10;7.20;99.90
32769;DHT22;23049;54.304;8.826;2023-11-21T14:26:41;7.20;99.90
32769;DHT22;23049;54.304;8.826;2023-11-21T14:29:07;7.20;99.90
32769;DHT22;23049;54.304;8.826;2023-11-21T14:31:33;7.20;99.90
32769;DHT22;23049;54.304;8.826;2023-11-21T14:33:59;7.10;99.90
32769;DHT22;23049;54.304;8.826;2023-11-21T14:36:27;7.20;99.90
32769;DHT22;23049;54.304;8.826;2023-11-21T14:38:52;7.10;99.90
32769;DHT22;23049;54.304;8.826;2023-11-21T14:41:18;7.10;99.90
32769;DHT22;23049;54.304;8.826;2023-11-21T14:43:44;7.10;99.90
32769;DHT22;23049;54.304;8.826;2023-11-21T14:46:11;7.00;99.90
32769;DHT22;23049;54.304;8.826;2023-11-21T14:48:41;7.00;99.90
32769;DHT22;23049;54.304;8.826;2023-11-21T14:51:22;7.00;99.90
32769;DHT22;23049;54.304;8.826;2023-11-21T14:53:50;7.00;99.90
32769;DHT22;23049;54.304;8.826;2023-11-21T14:56:21;7.00;99.90
32769;DHT22;23049;54.304;8.826;2023-11-21T14:58:57;7.00;99.90
32769;DHT22;23049;54.304;8.826;2023-11-21T15:01:23;6.90;99.90
32769;DHT22;23049;54.304;8.826;2023-11-21T15:04:01;6.90;99.90
32769;DHT22;23049;54.304;8.826;2023-11-21T15:06:27;6.80;99.90
32769;DHT22;23049;54.304;8.826;2023-11-21T15:08:56;6.90;99.90
32769;DHT22;23049;54.304;8.826;2023-11-21T15:11:44;6.90;99.90
32769;DHT22;23049;54.304;8.826;2023-11-21T15:14:11;6.80;99.90
32769;DHT22;23049;54.304;8.826;2023-11-21T15:16:41;6.80;99.90
32769;DHT22;23049;54.304;8.826;2023-11-21T15:19:11;6.80;99.90
32769;DHT22;23049;54.304;8.826;2023-11-21T15:21:43;6.80;99.90
32769;DHT22;23049;54.304;8.826;2023-11-21T15:24:09;6.70;99.90
32769;DHT22;23049;54.304;8.826;2023-11-21T15:26:36;6.70;99.90
32769;DHT22;23049;54.304;8.826;2023-11-21T15:29:01;6.70;99.90
32769;DHT22;23049;54.304;8.826;2023-11-21T15:31:27;6.70;99.90
32769;DHT22;23049;54.304;8.826;2023-11-21T15:33:52;6.60;99.90
32769;DHT22;23049;54.304;8.826;2023-11-21T15:36:25;6.60;99.90
32769;DHT22;23049;54.304;8.826;2023-11-21T15:38:52;6.60;99.90
32769;DHT22;23049;54.304;8.826;2023-11-21T15:41:18;6.50;99.90
32769;DHT22;23049;54.304;8.826;2023-11-21T15:43:43;6.50;99.90
32769;DHT22;23049;54.304;8.826;2023-11-21T15:46:09;6.50;99.90
32769;DHT22;23049;54.304;8.826;2023-11-21T15:48:35;6.50;99.90
32769;DHT22;23049;54.304;8.826;2023-11-21T15:51:01;6.50;99.90
32769;DHT22;23049;54.304;8.826;2023-11-21T15:53:28;6.40;99.90
32769;DHT22;23049;54.304;8.826;2023-11-21T15:55:53;6.40;99.90
32769;DHT22;23049;54.304;8.826;2023-11-21T15:58:19;6.40;99.90